createdAt,value
2017-04-19T00:00:26.163Z,0.60
2017-04-19T00:01:25.313Z,0.60
2017-04-19T00:02:24.513Z,0.60
2017-04-19T00:03:23.676Z,0.60
2017-04-19T00:04:22.784Z,0.50
2017-04-19T00:05:22.038Z,0.50
2017-04-19T00:06:21.184Z,0.50
2017-04-19T00:07:20.337Z,0.50
2017-04-19T00:08:19.525Z,0.50
2017-04-19T00:09:18.757Z,0.50
2017-04-19T00:10:18.816Z,0.50
2017-04-19T00:11:17.972Z,0.50
2017-04-19T00:12:17.384Z,0.60
2017-04-19T00:13:16.549Z,0.50
2017-04-19T00:14:15.677Z,0.50
2017-04-19T00:15:14.828Z,0.50
2017-04-19T00:16:13.976Z,0.50
2017-04-19T00:17:13.342Z,0.50
2017-04-19T00:18:13.227Z,0.50
2017-04-19T00:19:12.436Z,0.50
2017-04-19T00:20:11.596Z,0.50
2017-04-19T00:21:10.757Z,0.50
2017-04-19T00:22:09.872Z,0.50
2017-04-19T00:23:09.477Z,0.50
2017-04-19T00:24:08.693Z,0.50
2017-04-19T00:25:07.869Z,0.50
2017-04-19T00:26:07.029Z,0.50
2017-04-19T00:27:06.211Z,0.50
2017-04-19T00:28:05.407Z,0.50
2017-04-19T00:29:04.608Z,0.50
2017-04-19T00:30:04.089Z,0.50
2017-04-19T00:31:03.248Z,0.40
2017-04-19T00:32:02.424Z,0.40
2017-04-19T00:33:02.387Z,0.40
2017-04-19T00:34:01.573Z,0.50
2017-04-19T00:35:00.676Z,0.40
2017-04-19T00:36:00.300Z,0.40
2017-04-19T00:37:00.196Z,0.40
2017-04-19T00:37:59.449Z,0.40
2017-04-19T00:38:58.614Z,0.40
2017-04-19T00:39:57.765Z,0.40
2017-04-19T00:40:57.661Z,0.30
2017-04-19T00:41:57.576Z,0.30
2017-04-19T00:42:57.481Z,0.30
2017-04-19T00:43:56.643Z,0.30
2017-04-19T00:44:55.849Z,0.20
2017-04-19T00:45:55.049Z,0.20
2017-04-19T00:46:54.243Z,0.20
2017-04-19T00:47:53.414Z,0.20
2017-04-19T00:48:52.544Z,0.20
2017-04-19T00:49:52.436Z,0.20
2017-04-19T00:50:51.572Z,0.20
2017-04-19T00:51:50.746Z,0.20
2017-04-19T00:52:49.984Z,0.30
2017-04-19T00:53:49.261Z,0.20
2017-04-19T00:54:48.448Z,0.20
2017-04-19T00:55:47.600Z,0.10
2017-04-19T00:56:46.760Z,0.20
2017-04-19T00:57:45.950Z,0.10
2017-04-19T00:58:45.109Z,0.10
2017-04-19T00:59:44.287Z,0.00
2017-04-19T01:00:43.505Z,0.00
2017-04-19T01:01:42.640Z,0.00
2017-04-19T01:02:41.792Z,0.10
2017-04-19T01:03:40.995Z,0.00
2017-04-19T01:04:40.157Z,0.00
2017-04-19T01:05:39.292Z,0.00
2017-04-19T01:06:38.496Z,0.00
2017-04-19T01:07:37.695Z,0.00
2017-04-19T01:08:36.857Z,-0.10
2017-04-19T01:09:36.744Z,-0.10
2017-04-19T01:10:35.971Z,-0.10
2017-04-19T01:11:35.068Z,-0.10
2017-04-19T01:12:34.659Z,-0.10
2017-04-19T01:13:33.860Z,-0.10
2017-04-19T01:14:33.623Z,-0.10
2017-04-19T01:15:32.794Z,-0.10
2017-04-19T01:16:32.659Z,-0.20
2017-04-19T01:17:31.816Z,-0.10
2017-04-19T01:18:31.022Z,-0.20
2017-04-19T01:19:30.174Z,-0.20
2017-04-19T01:20:29.388Z,-0.20
2017-04-19T01:21:28.589Z,-0.20
2017-04-19T01:22:27.756Z,-0.20
2017-04-19T01:23:26.907Z,-0.20
2017-04-19T01:24:26.072Z,-0.10
2017-04-19T01:25:25.272Z,-0.20
2017-04-19T01:26:24.419Z,-0.10
2017-04-19T01:27:23.562Z,-0.10
2017-04-19T01:28:22.765Z,-0.10
2017-04-19T01:29:21.978Z,-0.10
2017-04-19T01:30:21.143Z,-0.20
2017-04-19T01:31:20.329Z,-0.20
2017-04-19T01:32:19.497Z,-0.20
2017-04-19T01:33:19.367Z,-0.30
2017-04-19T01:34:18.529Z,-0.20
2017-04-19T01:35:17.703Z,-0.20
2017-04-19T01:36:17.188Z,-0.20
2017-04-19T01:37:16.351Z,-0.20
2017-04-19T01:38:16.253Z,-0.20
2017-04-19T01:39:15.410Z,-0.20
2017-04-19T01:40:14.576Z,-0.20
2017-04-19T01:41:13.680Z,-0.20
2017-04-19T01:42:12.977Z,-0.20
2017-04-19T01:43:12.109Z,-0.20
2017-04-19T01:44:11.304Z,-0.20
2017-04-19T01:45:10.476Z,-0.20
2017-04-19T01:46:09.652Z,-0.20
2017-04-19T01:47:08.860Z,-0.30
2017-04-19T01:48:08.021Z,-0.30
2017-04-19T01:49:07.841Z,-0.30
2017-04-19T01:50:07.015Z,-0.20
2017-04-19T01:51:06.932Z,-0.30
2017-04-19T01:52:06.096Z,-0.20
2017-04-19T01:53:06.123Z,-0.30
2017-04-19T01:54:05.296Z,-0.20
2017-04-19T01:55:04.468Z,-0.20
2017-04-19T01:56:03.706Z,-0.30
2017-04-19T01:57:02.828Z,-0.30
2017-04-19T01:58:01.985Z,-0.30
2017-04-19T01:59:01.157Z,-0.30
2017-04-19T02:00:00.369Z,-0.30
2017-04-19T02:01:00.553Z,-0.30
2017-04-19T02:01:59.873Z,-0.30
2017-04-19T02:02:59.015Z,-0.30
2017-04-19T02:03:58.232Z,-0.30
2017-04-19T02:04:57.393Z,-0.40
2017-04-19T02:06:02.032Z,-0.40
2017-04-19T02:07:05.412Z,-0.30
2017-04-19T02:08:04.584Z,-0.30
2017-04-19T02:09:03.846Z,-0.40
2017-04-19T02:10:03.005Z,-0.40
2017-04-19T02:11:02.152Z,-0.40
2017-04-19T02:12:01.326Z,-0.40
2017-04-19T02:13:00.503Z,-0.40
2017-04-19T02:13:59.662Z,-0.40
2017-04-19T02:14:58.866Z,-0.40
2017-04-19T02:15:58.029Z,-0.40
2017-04-19T02:16:57.184Z,-0.40
2017-04-19T02:17:56.359Z,-0.40
2017-04-19T02:18:55.530Z,-0.40
2017-04-19T02:19:54.758Z,-0.50
2017-04-19T02:20:53.997Z,-0.40
2017-04-19T02:21:53.959Z,-0.50
2017-04-19T02:22:53.138Z,-0.40
2017-04-19T02:23:52.283Z,-0.40
2017-04-19T02:24:51.425Z,-0.40
2017-04-19T02:25:50.653Z,-0.50
2017-04-19T02:26:50.644Z,-0.50
2017-04-19T02:27:49.833Z,-0.50
2017-04-19T02:28:48.985Z,-0.50
2017-04-19T02:29:48.150Z,-1.00
2017-04-19T02:30:47.365Z,-0.60
2017-04-19T02:31:46.541Z,-0.60
2017-04-19T02:32:45.710Z,-0.60
2017-04-19T02:33:44.821Z,-0.60
2017-04-19T02:34:44.037Z,-0.60
2017-04-19T02:35:43.245Z,-0.60
2017-04-19T02:36:42.449Z,-0.60
2017-04-19T02:37:41.640Z,-0.60
2017-04-19T02:38:40.800Z,-0.60
2017-04-19T02:39:39.973Z,-0.60
2017-04-19T02:40:39.295Z,-0.60
2017-04-19T02:41:38.440Z,-0.60
2017-04-19T02:42:37.548Z,-0.60
2017-04-19T02:43:37.460Z,-0.60
2017-04-19T02:44:36.628Z,-0.50
2017-04-19T02:45:35.826Z,-0.50
2017-04-19T02:46:35.279Z,-0.50
2017-04-19T02:47:35.168Z,-0.60
2017-04-19T02:48:34.341Z,-0.50
2017-04-19T02:49:33.518Z,-0.50
2017-04-19T02:50:32.671Z,-0.50
2017-04-19T02:51:31.841Z,-0.50
2017-04-19T02:52:31.010Z,-0.50
2017-04-19T02:53:30.171Z,-0.50
2017-04-19T02:54:29.317Z,-0.50
2017-04-19T02:55:28.671Z,-0.50
2017-04-19T02:56:27.877Z,-0.50
2017-04-19T02:57:27.071Z,-0.50
2017-04-19T02:58:26.350Z,-0.50
2017-04-19T02:59:26.240Z,-0.60
2017-04-19T03:00:25.394Z,-0.50
2017-04-19T03:01:24.752Z,-0.50
2017-04-19T03:02:24.045Z,-0.50
2017-04-19T03:03:23.954Z,-0.60
2017-04-19T03:04:23.984Z,-0.70
2017-04-19T03:05:23.211Z,-0.60
2017-04-19T03:06:22.531Z,-0.60
2017-04-19T03:07:21.727Z,-0.50
2017-04-19T03:08:20.909Z,-0.50
2017-04-19T03:09:20.038Z,-0.50
2017-04-19T03:10:19.208Z,-0.50
2017-04-19T03:11:18.386Z,-0.60
2017-04-19T03:12:18.333Z,-0.60
2017-04-19T03:13:17.536Z,-0.50
2017-04-19T03:14:16.684Z,-0.50
2017-04-19T03:15:15.914Z,-0.60
2017-04-19T03:16:15.098Z,-0.60
2017-04-19T03:17:14.269Z,-0.50
2017-04-19T03:18:13.470Z,-0.60
2017-04-19T03:19:13.434Z,-0.70
2017-04-19T03:20:12.604Z,-0.60
2017-04-19T03:21:11.830Z,-0.60
2017-04-19T03:22:10.979Z,-0.60
2017-04-19T03:23:10.906Z,-0.60
2017-04-19T03:24:10.204Z,-0.60
2017-04-19T03:25:09.380Z,-0.60
2017-04-19T03:26:08.609Z,-0.60
2017-04-19T03:27:07.953Z,-0.60
2017-04-19T03:28:07.203Z,-0.60
2017-04-19T03:29:06.357Z,-0.60
2017-04-19T03:30:05.537Z,-0.60
2017-04-19T03:31:04.669Z,-0.60
2017-04-19T03:32:04.023Z,-0.60
2017-04-19T03:33:03.924Z,-0.60
2017-04-19T03:34:03.081Z,-0.60
2017-04-19T03:35:02.630Z,-0.60
2017-04-19T03:36:01.822Z,-0.60
2017-04-19T03:37:00.969Z,-0.60
2017-04-19T03:38:00.145Z,-0.60
2017-04-19T03:39:04.825Z,-0.60
2017-04-19T03:40:04.551Z,-0.70
2017-04-19T03:41:03.721Z,-0.70
2017-04-19T03:42:03.732Z,-0.70
2017-04-19T03:43:02.897Z,-0.60
2017-04-19T03:44:02.071Z,-0.60
2017-04-19T03:45:01.227Z,-0.70
2017-04-19T03:46:00.422Z,-0.60
2017-04-19T03:46:59.565Z,-0.60
2017-04-19T03:47:58.845Z,-0.60
2017-04-19T03:48:58.766Z,-0.60
2017-04-19T03:49:58.086Z,-0.50
2017-04-19T03:50:57.273Z,-0.50
2017-04-19T03:51:56.427Z,-0.50
2017-04-19T03:52:56.397Z,-0.60
2017-04-19T03:53:55.566Z,-0.50
2017-04-19T03:54:54.786Z,-0.50
2017-04-19T03:55:53.934Z,-0.50
2017-04-19T03:56:53.109Z,-0.50
2017-04-19T03:57:52.285Z,-0.50
2017-04-19T03:58:51.458Z,-0.50
2017-04-19T03:59:50.624Z,-0.50
2017-04-19T04:00:50.544Z,-0.60
2017-04-19T04:01:50.427Z,-0.60
2017-04-19T04:02:50.449Z,-0.50
2017-04-19T04:03:49.624Z,-0.50
2017-04-19T04:04:48.775Z,-0.50
2017-04-19T04:05:47.966Z,-0.50
2017-04-19T04:06:47.131Z,-0.50
2017-04-19T04:07:46.297Z,-0.50
2017-04-19T04:08:45.502Z,-0.60
2017-04-19T04:09:44.766Z,-0.60
2017-04-19T04:10:43.958Z,-0.60
2017-04-19T04:11:43.137Z,-0.60
2017-04-19T04:12:42.263Z,-0.60
2017-04-19T04:13:41.485Z,-0.60
2017-04-19T04:14:40.682Z,-0.50
2017-04-19T04:15:40.608Z,-0.60
2017-04-19T04:16:41.619Z,-0.50
2017-04-19T04:17:40.832Z,-0.50
2017-04-19T04:18:40.081Z,-0.50
2017-04-19T04:19:39.274Z,-0.50
2017-04-19T04:20:38.461Z,-0.40
2017-04-19T04:21:37.679Z,-0.50
2017-04-19T04:22:36.894Z,-0.40
2017-04-19T04:23:36.116Z,-0.50
2017-04-19T04:24:35.348Z,-0.50
2017-04-19T04:25:34.527Z,-0.50
2017-04-19T04:26:33.702Z,-0.60
2017-04-19T04:27:33.992Z,-0.60
2017-04-19T04:28:33.201Z,-0.60
2017-04-19T04:29:32.388Z,-0.60
2017-04-19T04:30:31.560Z,-0.60
2017-04-19T04:31:30.807Z,-0.60
2017-04-19T04:32:29.928Z,-0.60
2017-04-19T04:33:29.134Z,-0.70
2017-04-19T04:34:29.060Z,-0.70
2017-04-19T04:35:28.592Z,-0.70
2017-04-19T04:36:27.831Z,-0.70
2017-04-19T04:37:27.040Z,-0.70
2017-04-19T04:38:26.244Z,-0.70
2017-04-19T04:39:25.396Z,-0.70
2017-04-19T04:40:24.532Z,-0.70
2017-04-19T04:41:24.076Z,-0.70
2017-04-19T04:42:23.322Z,-0.60
2017-04-19T04:43:22.498Z,-0.60
2017-04-19T04:44:21.670Z,-0.60
2017-04-19T04:45:21.571Z,-0.70
2017-04-19T04:46:20.707Z,-0.70
2017-04-19T04:47:20.730Z,-0.70
2017-04-19T04:48:19.889Z,-0.60
2017-04-19T04:49:19.057Z,-0.60
2017-04-19T04:50:18.398Z,-0.60
2017-04-19T04:51:17.589Z,-0.60
2017-04-19T04:52:16.751Z,-0.60
2017-04-19T04:53:15.952Z,-0.60
2017-04-19T04:54:15.844Z,-0.60
2017-04-19T04:55:15.039Z,-0.50
2017-04-19T04:56:14.946Z,-0.60
2017-04-19T04:57:14.097Z,-0.50
2017-04-19T04:58:13.416Z,-0.50
2017-04-19T04:59:12.581Z,-0.40
2017-04-19T05:00:12.079Z,-0.40
2017-04-19T05:01:11.266Z,-0.40
2017-04-19T05:02:10.509Z,-0.40
2017-04-19T05:03:09.734Z,-0.40
2017-04-19T05:04:08.969Z,-0.40
2017-04-19T05:05:08.172Z,-0.40
2017-04-19T05:06:07.342Z,-0.30
2017-04-19T05:07:06.514Z,-0.20
2017-04-19T05:08:06.433Z,-0.30
2017-04-19T05:09:05.733Z,-0.20
2017-04-19T05:10:04.922Z,-0.20
2017-04-19T05:11:04.093Z,-0.20
2017-04-19T05:12:04.036Z,-0.20
2017-04-19T05:13:03.264Z,-0.10
2017-04-19T05:14:02.417Z,-0.10
2017-04-19T05:15:01.577Z,0.00
2017-04-19T05:16:00.746Z,0.00
2017-04-19T05:16:59.914Z,0.00
2017-04-19T05:17:59.193Z,0.10
2017-04-19T05:18:58.365Z,0.10
2017-04-19T05:19:57.509Z,0.10
2017-04-19T05:20:56.714Z,0.10
2017-04-19T05:21:55.977Z,0.20
2017-04-19T05:22:55.145Z,0.20
2017-04-19T05:23:55.045Z,0.20
2017-04-19T05:24:54.904Z,0.20
2017-04-19T05:25:54.031Z,0.30
2017-04-19T05:26:53.220Z,0.40
2017-04-19T05:27:52.470Z,0.40
2017-04-19T05:28:51.670Z,0.50
2017-04-19T05:29:50.816Z,0.50
2017-04-19T05:30:49.975Z,0.50
2017-04-19T05:31:49.864Z,0.50
2017-04-19T05:32:49.046Z,0.60
2017-04-19T05:33:48.334Z,0.60
2017-04-19T05:34:47.489Z,0.60
2017-04-19T05:35:46.602Z,0.70
2017-04-19T05:36:45.817Z,0.70
2017-04-19T05:37:45.777Z,0.60
2017-04-19T05:38:44.934Z,0.70
2017-04-19T05:39:44.116Z,0.70
2017-04-19T05:40:43.283Z,0.70
2017-04-19T05:41:43.209Z,0.70
2017-04-19T05:42:42.377Z,0.80
2017-04-19T05:43:41.550Z,0.90
2017-04-19T05:44:40.774Z,0.90
2017-04-19T05:45:39.963Z,0.90
2017-04-19T05:46:39.128Z,1.00
2017-04-19T05:47:39.041Z,0.90
2017-04-19T05:48:38.282Z,1.00
2017-04-19T05:49:37.425Z,1.10
2017-04-19T05:50:36.607Z,1.10
2017-04-19T05:51:35.800Z,1.20
2017-04-19T05:52:34.960Z,1.20
2017-04-19T05:53:34.881Z,1.20
2017-04-19T05:54:34.044Z,1.20
2017-04-19T05:55:34.257Z,1.20
2017-04-19T05:56:33.495Z,1.30
2017-04-19T05:57:32.788Z,1.30
2017-04-19T05:58:31.959Z,1.30
2017-04-19T05:59:31.129Z,1.40
2017-04-19T06:00:30.271Z,1.40
2017-04-19T06:01:29.388Z,1.50
2017-04-19T06:02:28.558Z,1.50
2017-04-19T06:03:27.786Z,1.50
2017-04-19T06:04:26.938Z,1.60
2017-04-19T06:05:26.113Z,1.60
2017-04-19T06:06:25.280Z,1.70
2017-04-19T06:07:24.453Z,1.70
2017-04-19T06:08:23.597Z,1.70
2017-04-19T06:09:22.730Z,1.80
2017-04-19T06:10:21.904Z,1.80
2017-04-19T06:11:21.083Z,1.90
2017-04-19T06:12:20.624Z,2.00
2017-04-19T06:13:19.753Z,2.00
2017-04-19T06:14:18.887Z,2.00
2017-04-19T06:15:19.869Z,2.00
2017-04-19T06:16:18.984Z,2.10
2017-04-19T06:17:18.205Z,2.10
2017-04-19T06:18:17.710Z,2.10
2017-04-19T06:19:17.626Z,2.10
2017-04-19T06:20:16.793Z,2.20
2017-04-19T06:21:15.963Z,2.30
2017-04-19T06:22:15.181Z,2.30
2017-04-19T06:23:14.373Z,2.30
2017-04-19T06:24:13.639Z,2.40
2017-04-19T06:25:12.909Z,2.40
2017-04-19T06:26:12.210Z,2.40
2017-04-19T06:27:11.504Z,2.40
2017-04-19T06:28:11.781Z,2.50
2017-04-19T06:30:11.596Z,2.50
2017-04-19T06:31:10.881Z,2.60
2017-04-19T06:32:10.235Z,2.70
2017-04-19T06:33:09.944Z,2.70
2017-04-19T06:34:09.233Z,2.80
2017-04-19T06:35:08.451Z,2.80
2017-04-19T06:36:08.800Z,2.90
2017-04-19T06:37:08.068Z,2.90
2017-04-19T06:38:07.264Z,3.00
2017-04-19T06:39:06.926Z,3.00
2017-04-19T06:40:06.540Z,3.00
2017-04-19T06:41:05.740Z,3.00
2017-04-19T06:42:05.307Z,3.00
2017-04-19T06:43:05.368Z,3.00
2017-04-19T06:44:05.173Z,3.10
2017-04-19T06:45:05.150Z,3.10
2017-04-19T06:46:04.488Z,3.20
2017-04-19T06:47:03.841Z,3.30
2017-04-19T06:48:03.127Z,3.30
2017-04-19T06:49:02.350Z,3.30
2017-04-19T06:50:02.130Z,3.40
2017-04-19T06:51:01.392Z,3.40
2017-04-19T06:52:00.625Z,3.40
2017-04-19T06:53:03.124Z,3.40
2017-04-19T06:54:02.409Z,3.40
2017-04-19T06:55:01.707Z,3.40
2017-04-19T06:56:01.533Z,3.50
2017-04-19T06:57:00.856Z,3.60
2017-04-19T06:58:00.823Z,3.60
2017-04-19T06:59:00.820Z,3.70
2017-04-19T07:00:00.809Z,3.80
2017-04-19T07:01:00.088Z,3.80
2017-04-19T07:01:59.715Z,3.80
2017-04-19T07:03:05.357Z,3.80
2017-04-19T07:04:04.585Z,3.90
2017-04-19T07:05:04.088Z,3.90
2017-04-19T07:06:03.405Z,3.90
2017-04-19T07:07:03.224Z,3.90
2017-04-19T07:08:02.471Z,3.90
2017-04-19T07:09:02.598Z,3.90
2017-04-19T07:10:01.885Z,3.90
2017-04-19T07:11:01.058Z,4.00
2017-04-19T07:12:01.078Z,3.90
2017-04-19T07:13:00.341Z,4.10
2017-04-19T07:13:59.737Z,4.20
2017-04-19T07:15:00.130Z,4.20
2017-04-19T07:15:59.385Z,4.30
2017-04-19T07:16:58.773Z,4.30
2017-04-19T07:17:58.096Z,4.30
2017-04-19T07:18:57.404Z,4.30
2017-04-19T07:19:56.700Z,4.30
2017-04-19T07:20:55.969Z,4.30
2017-04-19T07:21:55.253Z,4.40
2017-04-19T07:22:54.917Z,4.40
2017-04-19T07:23:54.235Z,4.40
2017-04-19T07:24:53.785Z,4.50
2017-04-19T07:25:52.987Z,4.60
2017-04-19T07:26:52.184Z,4.60
2017-04-19T07:27:51.727Z,4.70
2017-04-19T07:28:51.043Z,4.70
2017-04-19T07:29:50.272Z,4.80
2017-04-19T07:30:49.518Z,4.80
2017-04-19T07:31:48.814Z,4.90
2017-04-19T07:32:49.013Z,4.90
2017-04-19T07:33:48.401Z,4.90
2017-04-19T07:34:48.417Z,4.80
2017-04-19T07:35:48.261Z,4.90
2017-04-19T07:36:47.488Z,4.90
2017-04-19T07:37:46.774Z,4.90
2017-04-19T07:38:46.042Z,5.00
2017-04-19T07:39:45.370Z,5.00
2017-04-19T07:40:44.560Z,5.00
2017-04-19T07:41:43.845Z,5.00
2017-04-19T07:42:43.136Z,5.10
2017-04-19T07:43:42.460Z,5.10
2017-04-19T07:44:42.029Z,5.10
2017-04-19T07:45:41.259Z,5.20
2017-04-19T07:46:41.344Z,5.20
2017-04-19T07:47:40.831Z,5.30
2017-04-19T07:48:40.173Z,5.30
2017-04-19T07:49:39.474Z,5.30
2017-04-19T07:50:38.746Z,5.40
2017-04-19T07:51:37.965Z,5.30
2017-04-19T07:52:38.174Z,5.30
2017-04-19T07:53:37.487Z,5.40
2017-04-19T07:54:36.732Z,5.40
2017-04-19T07:55:36.465Z,5.40
2017-04-19T07:56:35.935Z,5.40
2017-04-19T07:57:35.589Z,5.50
2017-04-19T07:58:34.825Z,5.50
2017-04-19T07:59:34.006Z,5.50
2017-04-19T08:00:33.160Z,5.60
2017-04-19T08:01:32.457Z,5.70
2017-04-19T08:02:32.572Z,5.70
2017-04-19T08:03:31.902Z,5.80
2017-04-19T08:04:31.242Z,5.80
2017-04-19T08:05:30.683Z,5.80
2017-04-19T08:06:29.995Z,5.70
2017-04-19T08:07:29.374Z,5.70
2017-04-19T08:08:28.572Z,5.70
2017-04-19T08:09:27.865Z,5.80
2017-04-19T08:10:27.155Z,5.90
2017-04-19T08:11:26.353Z,6.00
2017-04-19T08:12:25.620Z,6.10
2017-04-19T08:13:24.924Z,6.10
2017-04-19T08:14:24.182Z,6.20
2017-04-19T08:15:23.511Z,6.30
2017-04-19T08:16:22.716Z,6.30
2017-04-19T08:17:21.956Z,6.30
2017-04-19T08:18:21.897Z,6.40
2017-04-19T08:19:21.176Z,6.50
2017-04-19T08:20:20.408Z,6.40
2017-04-19T08:21:19.881Z,6.30
2017-04-19T08:22:19.145Z,6.30
2017-04-19T08:23:18.448Z,6.30
2017-04-19T08:24:17.619Z,6.40
2017-04-19T08:25:16.929Z,6.50
2017-04-19T08:26:16.151Z,6.60
2017-04-19T08:27:15.456Z,6.50
2017-04-19T08:28:14.799Z,6.50
2017-04-19T08:29:14.056Z,6.40
2017-04-19T08:30:13.423Z,6.40
2017-04-19T08:31:13.356Z,6.50
2017-04-19T08:32:12.637Z,6.60
2017-04-19T08:33:12.272Z,6.80
2017-04-19T08:34:11.556Z,7.00
2017-04-19T08:35:11.545Z,7.20
2017-04-19T08:36:11.228Z,7.40
2017-04-19T08:37:10.585Z,7.50
2017-04-19T08:38:09.873Z,7.60
2017-04-19T08:39:09.610Z,7.90
2017-04-19T08:40:09.064Z,7.90
2017-04-19T08:41:08.444Z,7.90
2017-04-19T08:42:07.695Z,7.90
2017-04-19T08:43:06.993Z,8.00
2017-04-19T08:44:06.211Z,8.00
2017-04-19T08:45:05.793Z,8.00
2017-04-19T08:46:05.040Z,8.00
2017-04-19T08:47:04.283Z,7.80
2017-04-19T08:48:03.505Z,7.40
2017-04-19T08:49:03.898Z,7.90
2017-04-19T08:50:03.215Z,7.80
2017-04-19T08:51:03.219Z,7.50
2017-04-19T08:52:03.411Z,7.40
2017-04-19T08:53:02.784Z,7.40
2017-04-19T08:54:02.347Z,6.80
2017-04-19T08:55:01.889Z,7.10
2017-04-19T08:56:01.608Z,6.80
2017-04-19T08:57:00.844Z,6.70
2017-04-19T08:58:00.747Z,6.80
2017-04-19T08:59:00.193Z,6.90
2017-04-19T08:59:59.607Z,7.10
2017-04-19T09:00:58.983Z,7.20
2017-04-19T09:01:58.993Z,7.40
2017-04-19T09:03:57.944Z,7.70
2017-04-19T09:04:57.230Z,7.80
2017-04-19T09:05:56.539Z,8.00
2017-04-19T09:06:55.818Z,8.20
2017-04-19T09:07:56.157Z,8.30
2017-04-19T09:08:55.652Z,8.30
2017-04-19T09:09:54.956Z,8.50
2017-04-19T09:10:54.224Z,8.50
2017-04-19T09:11:53.450Z,8.50
2017-04-19T09:12:52.772Z,8.70
2017-04-19T09:13:52.120Z,8.60
2017-04-19T09:14:51.554Z,8.40
2017-04-19T09:15:51.007Z,8.30
2017-04-19T09:16:50.361Z,8.30
2017-04-19T09:17:50.906Z,8.40
2017-04-19T09:18:50.861Z,8.40
2017-04-19T09:19:50.109Z,8.40
2017-04-19T09:20:49.389Z,8.50
2017-04-19T09:21:48.730Z,8.50
2017-04-19T09:22:48.250Z,8.70
2017-04-19T09:23:47.579Z,8.80
2017-04-19T09:24:46.836Z,8.90
2017-04-19T09:25:46.032Z,8.90
2017-04-19T09:26:45.269Z,9.00
2017-04-19T09:27:44.718Z,9.10
2017-04-19T09:28:44.695Z,8.90
2017-04-19T09:29:44.023Z,8.80
2017-04-19T09:30:44.135Z,8.70
2017-04-19T09:31:43.692Z,8.60
2017-04-19T09:32:43.406Z,8.90
2017-04-19T09:33:42.930Z,9.10
2017-04-19T09:34:42.248Z,9.20
2017-04-19T09:35:41.501Z,9.20
2017-04-19T09:36:41.666Z,9.20
2017-04-19T09:37:41.231Z,9.20
2017-04-19T09:38:40.529Z,9.20
2017-04-19T09:39:40.644Z,9.30
2017-04-19T09:40:40.639Z,9.40
2017-04-19T09:41:39.857Z,9.60
2017-04-19T09:42:39.582Z,9.50
2017-04-19T09:43:38.835Z,9.30
2017-04-19T09:44:39.137Z,9.10
2017-04-19T09:45:39.151Z,8.70
2017-04-19T09:46:38.669Z,8.40
2017-04-19T09:47:37.931Z,8.20
2017-04-19T09:48:37.146Z,8.00
2017-04-19T09:49:37.058Z,8.00
2017-04-19T09:50:36.389Z,7.70
2017-04-19T09:51:36.618Z,7.60
2017-04-19T09:52:36.004Z,7.40
2017-04-19T09:53:35.416Z,7.40
2017-04-19T09:54:35.160Z,7.40
2017-04-19T09:55:34.429Z,7.30
2017-04-19T09:56:33.720Z,7.30
2017-04-19T09:57:33.031Z,7.30
2017-04-19T09:58:32.356Z,7.30
2017-04-19T09:59:31.681Z,7.20
2017-04-19T10:00:31.468Z,7.20
2017-04-19T10:01:31.537Z,7.20
2017-04-19T10:02:30.926Z,7.10
2017-04-19T10:03:30.278Z,7.20
2017-04-19T10:04:29.545Z,7.30
2017-04-19T10:05:28.841Z,7.30
2017-04-19T10:06:28.786Z,7.30
2017-04-19T10:07:28.091Z,7.40
2017-04-19T10:08:27.455Z,7.50
2017-04-19T10:09:26.773Z,7.50
2017-04-19T10:10:26.183Z,7.50
2017-04-19T10:11:25.457Z,7.60
2017-04-19T10:12:24.846Z,7.70
2017-04-19T10:13:24.322Z,8.00
2017-04-19T10:14:23.664Z,8.20
2017-04-19T10:15:23.848Z,8.30
2017-04-19T10:16:23.178Z,8.40
2017-04-19T10:17:22.506Z,8.70
2017-04-19T10:18:22.993Z,8.70
2017-04-19T10:19:22.282Z,8.30
2017-04-19T10:20:21.571Z,8.20
2017-04-19T10:21:20.853Z,8.20
2017-04-19T10:22:20.226Z,8.10
2017-04-19T10:23:19.538Z,8.00
2017-04-19T10:24:18.890Z,8.00
2017-04-19T10:25:18.276Z,7.90
2017-04-19T10:26:18.029Z,7.80
2017-04-19T10:27:17.376Z,7.90
2017-04-19T10:28:16.758Z,7.90
2017-04-19T10:29:16.012Z,8.00
2017-04-19T10:30:15.375Z,7.90
2017-04-19T10:31:14.736Z,7.90
2017-04-19T10:32:14.012Z,7.80
2017-04-19T10:33:13.393Z,7.90
2017-04-19T10:34:12.605Z,8.00
2017-04-19T10:35:12.169Z,8.00
2017-04-19T10:36:11.613Z,8.00
2017-04-19T10:37:10.826Z,8.00
2017-04-19T10:38:10.188Z,8.10
2017-04-19T10:39:09.536Z,8.30
2017-04-19T10:40:09.671Z,8.30
2017-04-19T10:41:08.983Z,8.40
2017-04-19T10:42:08.199Z,8.40
2017-04-19T10:43:08.065Z,8.40
2017-04-19T10:44:07.275Z,8.40
2017-04-19T10:45:06.608Z,8.40
2017-04-19T10:46:05.862Z,8.30
2017-04-19T10:47:05.266Z,8.40
2017-04-19T10:48:05.388Z,8.40
2017-04-19T10:49:04.730Z,8.40
2017-04-19T10:50:04.101Z,8.50
2017-04-19T10:51:03.376Z,8.60
2017-04-19T10:52:02.874Z,8.60
2017-04-19T10:53:02.650Z,8.50
2017-04-19T10:54:01.927Z,8.60
2017-04-19T10:55:01.251Z,8.50
2017-04-19T10:56:01.200Z,8.50
2017-04-19T10:57:00.434Z,8.60
2017-04-19T10:57:59.715Z,8.70
2017-04-19T10:58:59.401Z,8.70
2017-04-19T10:59:59.456Z,8.70
2017-04-19T11:00:58.726Z,8.70
2017-04-19T11:01:58.077Z,8.70
2017-04-19T11:02:57.984Z,8.70
2017-04-19T11:03:57.174Z,8.70
2017-04-19T11:04:56.412Z,8.70
2017-04-19T11:05:57.801Z,8.70
2017-04-19T11:06:57.045Z,8.80
2017-04-19T11:07:56.322Z,8.80
2017-04-19T11:08:55.628Z,8.90
2017-04-19T11:11:31.008Z,9.10
2017-04-19T11:12:31.620Z,9.10
2017-04-19T11:13:50.984Z,9.20
2017-04-19T11:27:21.676Z,9.10
2017-04-19T11:28:42.992Z,9.60
2017-04-19T11:30:00.612Z,10.50
2017-04-19T11:31:00.050Z,11.20
2017-04-19T12:34:35.832Z,12.70
2017-04-19T12:35:35.423Z,12.50
2017-04-19T12:36:40.297Z,12.40
2017-04-19T12:37:39.435Z,12.30
2017-04-19T12:38:42.462Z,12.30
2017-04-19T12:39:41.705Z,11.90
2017-04-19T12:40:41.649Z,11.60
2017-04-19T12:41:41.622Z,11.30
2017-04-19T12:42:40.786Z,11.10
2017-04-19T12:43:39.958Z,10.70
2017-04-19T12:44:39.141Z,10.60
2017-04-19T12:45:38.716Z,10.40
2017-04-19T12:46:37.986Z,10.20
2017-04-19T12:47:37.900Z,10.00
2017-04-19T12:49:36.585Z,10.00
2017-04-19T12:50:36.509Z,10.00
2017-04-19T12:51:35.689Z,10.20
2017-04-19T12:52:34.836Z,10.20
2017-04-19T12:53:34.002Z,10.20
2017-04-19T12:54:33.205Z,10.00
2017-04-19T12:55:32.399Z,9.80
2017-04-19T12:56:31.621Z,9.80
2017-04-19T12:57:30.861Z,9.70
2017-04-19T12:58:30.070Z,9.90
2017-04-19T12:59:29.299Z,9.90
2017-04-19T13:00:28.554Z,10.00
2017-04-19T13:01:28.057Z,10.10
2017-04-19T13:02:27.997Z,10.00
2017-04-19T13:03:27.186Z,10.30
2017-04-19T13:04:26.357Z,10.30
2017-04-19T13:05:25.534Z,10.30
2017-04-19T13:06:24.667Z,10.60
2017-04-19T13:07:24.630Z,10.70
2017-04-19T13:08:23.832Z,11.00
2017-04-19T13:09:23.063Z,11.30
2017-04-19T13:10:22.261Z,11.60
2017-04-19T13:11:21.503Z,11.90
2017-04-19T13:12:20.704Z,12.00
2017-04-19T13:13:19.834Z,12.20
2017-04-19T13:14:18.996Z,12.30
2017-04-19T13:15:18.136Z,12.30
2017-04-19T13:16:17.612Z,12.10
2017-04-19T13:17:16.837Z,12.10
2017-04-19T13:18:16.053Z,12.00
2017-04-19T13:19:15.248Z,11.90
2017-04-19T13:20:14.447Z,11.80
2017-04-19T13:21:14.421Z,11.70
2017-04-19T13:22:13.535Z,11.70
2017-04-19T13:23:12.737Z,11.50
2017-04-19T13:24:11.976Z,11.40
2017-04-19T13:25:11.203Z,11.30
2017-04-19T13:26:10.413Z,11.30
2017-04-19T13:27:09.640Z,11.10
2017-04-19T13:28:08.803Z,11.10
2017-04-19T13:29:08.055Z,11.10
2017-04-19T13:30:08.027Z,11.00
2017-04-19T13:31:07.168Z,11.10
2017-04-19T13:32:06.764Z,10.80
2017-04-19T13:33:05.925Z,10.70
2017-04-19T13:34:06.582Z,10.50
2017-04-19T13:35:06.655Z,10.60
2017-04-19T13:36:05.865Z,10.60
2017-04-19T13:37:05.075Z,10.40
2017-04-19T13:38:04.345Z,10.50
2017-04-19T13:39:03.577Z,10.80
2017-04-19T13:40:02.821Z,10.90
2017-04-19T13:41:01.982Z,11.00
2017-04-19T13:42:01.151Z,11.10
2017-04-19T13:43:00.747Z,11.00
2017-04-19T13:43:59.956Z,11.00
2017-04-19T13:44:59.924Z,11.10
2017-04-19T13:45:59.100Z,11.10
2017-04-19T13:46:58.355Z,11.10
2017-04-19T13:47:57.565Z,11.00
2017-04-19T13:48:56.795Z,11.00
2017-04-19T13:49:55.917Z,11.00
2017-04-19T13:50:55.105Z,11.10
2017-04-19T13:51:54.333Z,11.10
2017-04-19T13:52:53.596Z,11.20
2017-04-19T13:53:52.759Z,11.40
2017-04-19T13:54:52.719Z,11.60
2017-04-19T13:55:51.977Z,11.90
2017-04-19T13:56:51.091Z,12.00
2017-04-19T13:57:56.106Z,11.50
2017-04-19T13:58:55.315Z,12.00
2017-04-19T13:59:55.209Z,12.50
2017-04-19T14:00:54.364Z,13.20
2017-04-19T14:01:53.566Z,14.40
2017-04-19T14:02:52.718Z,15.50
2017-04-19T14:03:51.953Z,16.60
2017-04-19T14:04:51.120Z,17.40
2017-04-19T14:05:50.301Z,17.60
2017-04-19T14:06:49.513Z,17.60
2017-04-19T14:07:48.752Z,18.00
2017-04-19T14:08:48.091Z,17.90
2017-04-19T14:09:47.572Z,17.60
2017-04-19T14:10:46.732Z,17.10
2017-04-19T14:11:45.909Z,16.70
2017-04-19T14:12:45.826Z,15.90
2017-04-19T14:13:44.972Z,15.30
2017-04-19T14:14:44.135Z,14.80
2017-04-19T14:15:43.678Z,14.10
2017-04-19T14:16:43.538Z,13.50
2017-04-19T14:17:42.704Z,12.60
2017-04-19T14:18:41.844Z,12.10
2017-04-19T14:19:40.986Z,11.70